sensor_id;sensor_type;location;lat;lon;timestamp;P1;durP1;ratioP1;P2;durP2;ratioP2
3991;SDS011;2010;48.194;16.394;2022-10-29T00:02:07;23.23;;;16.47;;
3991;SDS011;2010;48.194;16.394;2022-10-29T00:04:39;16.83;;;14.70;;
3991;SDS011;2010;48.194;16.394;2022-10-29T00:07:10;19.80;;;15.23;;
3991;SDS011;2010;48.194;16.394;2022-10-29T00:09:39;19.53;;;15.93;;
3991;SDS011;2010;48.194;16.394;2022-10-29T00:12:09;17.30;;;14.83;;
3991;SDS011;2010;48.194;16.394;2022-10-29T00:14:38;16.80;;;13.63;;
3991;SDS011;2010;48.194;16.394;2022-10-29T00:17:10;18.83;;;15.37;;
3991;SDS011;2010;48.194;16.394;2022-10-29T00:19:40;18.57;;;15.40;;
3991;SDS011;2010;48.194;16.394;2022-10-29T00:22:12;17.60;;;14.73;;
3991;SDS011;2010;48.194;16.394;2022-10-29T00:24:40;14.87;;;13.27;;
3991;SDS011;2010;48.194;16.394;2022-10-29T00:27:09;15.43;;;13.47;;
3991;SDS011;2010;48.194;16.394;2022-10-29T00:29:39;14.93;;;13.33;;
3991;SDS011;2010;48.194;16.394;2022-10-29T00:32:11;17.60;;;14.27;;
3991;SDS011;2010;48.194;16.394;2022-10-29T00:34:40;15.43;;;13.20;;
3991;SDS011;2010;48.194;16.394;2022-10-29T00:37:09;14.30;;;12.80;;
3991;SDS011;2010;48.194;16.394;2022-10-29T00:39:38;15.03;;;12.40;;
3991;SDS011;2010;48.194;16.394;2022-10-29T00:42:12;13.60;;;12.17;;
3991;SDS011;2010;48.194;16.394;2022-10-29T00:44:41;15.27;;;13.27;;
3991;SDS011;2010;48.194;16.394;2022-10-29T00:47:13;21.60;;;14.83;;
3991;SDS011;2010;48.194;16.394;2022-10-29T00:49:47;16.40;;;13.50;;
3991;SDS011;2010;48.194;16.394;2022-10-29T00:52:18;15.27;;;13.13;;
3991;SDS011;2010;48.194;16.394;2022-10-29T00:54:49;15.73;;;13.27;;
3991;SDS011;2010;48.194;16.394;2022-10-29T00:57:20;14.80;;;13.20;;
3991;SDS011;2010;48.194;16.394;2022-10-29T00:59:51;18.80;;;14.87;;
3991;SDS011;2010;48.194;16.394;2022-10-29T01:02:20;17.83;;;14.43;;
3991;SDS011;2010;48.194;16.394;2022-10-29T01:04:52;16.60;;;14.00;;
3991;SDS011;2010;48.194;16.394;2022-10-29T01:07:20;15.23;;;12.63;;
3991;SDS011;2010;48.194;16.394;2022-10-29T01:09:50;17.00;;;14.70;;
3991;SDS011;2010;48.194;16.394;2022-10-29T01:12:28;16.00;;;13.60;;
3991;SDS011;2010;48.194;16.394;2022-10-29T01:15:03;14.77;;;13.00;;
3991;SDS011;2010;48.194;16.394;2022-10-29T01:17:37;15.47;;;13.87;;
3991;SDS011;2010;48.194;16.394;2022-10-29T01:20:31;16.30;;;13.37;;
3991;SDS011;2010;48.194;16.394;2022-10-29T01:23:14;15.40;;;13.80;;
3991;SDS011;2010;48.194;16.394;2022-10-29T01:26:00;13.70;;;12.30;;
3991;SDS011;2010;48.194;16.394;2022-10-29T01:28:47;15.90;;;13.00;;
3991;SDS011;2010;48.194;16.394;2022-10-29T01:31:30;15.00;;;13.43;;
3991;SDS011;2010;48.194;16.394;2022-10-29T01:34:03;16.63;;;13.37;;
3991;SDS011;2010;48.194;16.394;2022-10-29T01:36:37;14.17;;;12.00;;
3991;SDS011;2010;48.194;16.394;2022-10-29T01:39:13;14.40;;;12.87;;
3991;SDS011;2010;48.194;16.394;2022-10-29T01:41:49;14.93;;;13.37;;
3991;SDS011;2010;48.194;16.394;2022-10-29T01:44:28;16.10;;;14.27;;
3991;SDS011;2010;48.194;16.394;2022-10-29T01:47:03;18.13;;;13.83;;
3991;SDS011;2010;48.194;16.394;2022-10-29T01:49:33;16.27;;;13.53;;
3991;SDS011;2010;48.194;16.394;2022-10-29T01:52:09;16.53;;;12.93;;
3991;SDS011;2010;48.194;16.394;2022-10-29T01:54:41;16.90;;;14.63;;
3991;SDS011;2010;48.194;16.394;2022-10-29T01:57:22;17.43;;;14.40;;
3991;SDS011;2010;48.194;16.394;2022-10-29T01:59:55;20.00;;;15.50;;
3991;SDS011;2010;48.194;16.394;2022-10-29T02:02:27;16.93;;;13.90;;
3991;SDS011;2010;48.194;16.394;2022-10-29T02:05:03;16.80;;;13.80;;
3991;SDS011;2010;48.194;16.394;2022-10-29T02:07:42;17.60;;;14.50;;
3991;SDS011;2010;48.194;16.394;2022-10-29T02:10:14;19.53;;;15.33;;
3991;SDS011;2010;48.194;16.394;2022-10-29T02:12:48;16.87;;;13.60;;
3991;SDS011;2010;48.194;16.394;2022-10-29T02:15:19;18.07;;;14.40;;
3991;SDS011;2010;48.194;16.394;2022-10-29T02:17:56;17.83;;;14.70;;
3991;SDS011;2010;48.194;16.394;2022-10-29T02:20:26;17.00;;;14.70;;
3991;SDS011;2010;48.194;16.394;2022-10-29T02:22:54;22.37;;;16.80;;
3991;SDS011;2010;48.194;16.394;2022-10-29T02:25:23;22.57;;;15.83;;
3991;SDS011;2010;48.194;16.394;2022-10-29T02:27:53;17.70;;;14.50;;
3991;SDS011;2010;48.194;16.394;2022-10-29T02:30:21;20.77;;;16.23;;
3991;SDS011;2010;48.194;16.394;2022-10-29T02:32:50;23.40;;;17.50;;
3991;SDS011;2010;48.194;16.394;2022-10-29T02:35:20;21.47;;;16.93;;
3991;SDS011;2010;48.194;16.394;2022-10-29T02:37:50;20.90;;;16.80;;
3991;SDS011;2010;48.194;16.394;2022-10-29T02:40:18;19.90;;;16.57;;
3991;SDS011;2010;48.194;16.394;2022-10-29T02:42:50;21.60;;;16.63;;
3991;SDS011;2010;48.194;16.394;2022-10-29T02:45:19;21.33;;;15.90;;
3991;SDS011;2010;48.194;16.394;2022-10-29T02:47:49;20.37;;;16.33;;
3991;SDS011;2010;48.194;16.394;2022-10-29T02:50:17;21.07;;;16.43;;
3991;SDS011;2010;48.194;16.394;2022-10-29T02:52:48;18.70;;;15.90;;
3991;SDS011;2010;48.194;16.394;2022-10-29T02:55:16;18.87;;;15.10;;
3991;SDS011;2010;48.194;16.394;2022-10-29T02:57:46;21.20;;;14.50;;
3991;SDS011;2010;48.194;16.394;2022-10-29T03:00:14;19.80;;;15.80;;
3991;SDS011;2010;48.194;16.394;2022-10-29T03:02:43;18.93;;;15.30;;
3991;SDS011;2010;48.194;16.394;2022-10-29T03:05:11;19.73;;;15.07;;
3991;SDS011;2010;48.194;16.394;2022-10-29T03:07:40;20.90;;;14.60;;
3991;SDS011;2010;48.194;16.394;2022-10-29T03:10:12;17.73;;;14.10;;
3991;SDS011;2010;48.194;16.394;2022-10-29T03:12:40;21.47;;;15.20;;
3991;SDS011;2010;48.194;16.394;2022-10-29T03:15:10;17.00;;;15.13;;
3991;SDS011;2010;48.194;16.394;2022-10-29T03:17:39;19.47;;;14.73;;
3991;SDS011;2010;48.194;16.394;2022-10-29T03:20:10;18.67;;;12.93;;
3991;SDS011;2010;48.194;16.394;2022-10-29T03:22:40;18.67;;;14.23;;
3991;SDS011;2010;48.194;16.394;2022-10-29T03:25:12;16.67;;;13.33;;
3991;SDS011;2010;48.194;16.394;2022-10-29T03:27:40;17.50;;;13.90;;
3991;SDS011;2010;48.194;16.394;2022-10-29T03:30:09;18.07;;;13.97;;
3991;SDS011;2010;48.194;16.394;2022-10-29T03:32:38;16.23;;;13.70;;
3991;SDS011;2010;48.194;16.394;2022-10-29T03:35:11;17.90;;;14.37;;
3991;SDS011;2010;48.194;16.394;2022-10-29T03:37:40;17.03;;;13.03;;
3991;SDS011;2010;48.194;16.394;2022-10-29T03:40:13;18.77;;;13.73;;
3991;SDS011;2010;48.194;16.394;2022-10-29T03:42:41;17.83;;;13.70;;
3991;SDS011;2010;48.194;16.394;2022-10-29T03:45:10;17.13;;;13.70;;
3991;SDS011;2010;48.194;16.394;2022-10-29T03:47:39;16.20;;;12.77;;
3991;SDS011;2010;48.194;16.394;2022-10-29T03:50:08;16.67;;;13.33;;
3991;SDS011;2010;48.194;16.394;2022-10-29T03:52:37;17.57;;;14.07;;
3991;SDS011;2010;48.194;16.394;2022-10-29T03:55:09;18.17;;;12.97;;
3991;SDS011;2010;48.194;16.394;2022-10-29T03:57:42;20.20;;;14.83;;
3991;SDS011;2010;48.194;16.394;2022-10-29T04:00:12;17.10;;;13.50;;
3991;SDS011;2010;48.194;16.394;2022-10-29T04:02:40;21.37;;;16.23;;
3991;SDS011;2010;48.194;16.394;2022-10-29T04:05:13;20.07;;;16.57;;
3991;SDS011;2010;48.194;16.394;2022-10-29T04:07:41;19.43;;;14.07;;
3991;SDS011;2010;48.194;16.394;2022-10-29T04:10:12;21.27;;;15.20;;
3991;SDS011;2010;48.194;16.394;2022-10-29T04:12:45;22.70;;;15.53;;
3991;SDS011;2010;48.194;16.394;2022-10-29T04:15:14;20.50;;;15.33;;
3991;SDS011;2010;48.194;16.394;2022-10-29T04:17:43;16.83;;;14.00;;
3991;SDS011;2010;48.194;16.394;2022-10-29T04:20:13;19.70;;;16.07;;
3991;SDS011;2010;48.194;16.394;2022-10-29T04:23:02;20.77;;;15.53;;
3991;SDS011;2010;48.194;16.394;2022-10-29T04:25:55;22.03;;;15.63;;
3991;SDS011;2010;48.194;16.394;2022-10-29T04:28:48;20.70;;;16.37;;
3991;SDS011;2010;48.194;16.394;2022-10-29T04:31:16;21.10;;;16.27;;
3991;SDS011;2010;48.194;16.394;2022-10-29T04:33:46;22.23;;;15.90;;
3991;SDS011;2010;48.194;16.394;2022-10-29T04:36:15;22.90;;;16.63;;
3991;SDS011;2010;48.194;16.394;2022-10-29T04:38:45;24.97;;;17.00;;
3991;SDS011;2010;48.194;16.394;2022-10-29T04:41:14;23.87;;;16.30;;
3991;SDS011;2010;48.194;16.394;2022-10-29T04:43:42;24.13;;;15.33;;
3991;SDS011;2010;48.194;16.394;2022-10-29T04:46:13;24.10;;;16.40;;
3991;SDS011;2010;48.194;16.394;2022-10-29T04:48:41;22.30;;;16.17;;
3991;SDS011;2010;48.194;16.394;2022-10-29T04:51:16;20.40;;;15.77;;
3991;SDS011;2010;48.194;16.394;2022-10-29T04:53:46;19.80;;;14.80;;
3991;SDS011;2010;48.194;16.394;2022-10-29T04:56:15;21.63;;;15.30;;
3991;SDS011;2010;48.194;16.394;2022-10-29T04:58:44;22.07;;;15.83;;
3991;SDS011;2010;48.194;16.394;2022-10-29T05:01:15;18.60;;;13.67;;
3991;SDS011;2010;48.194;16.394;2022-10-29T05:03:44;20.30;;;14.60;;
3991;SDS011;2010;48.194;16.394;2022-10-29T05:06:13;22.20;;;15.50;;
3991;SDS011;2010;48.194;16.394;2022-10-29T05:08:41;19.93;;;15.30;;
3991;SDS011;2010;48.194;16.394;2022-10-29T05:11:10;23.20;;;15.77;;
3991;SDS011;2010;48.194;16.394;2022-10-29T05:13:40;21.80;;;15.73;;
3991;SDS011;2010;48.194;16.394;2022-10-29T05:16:11;21.13;;;14.80;;
3991;SDS011;2010;48.194;16.394;2022-10-29T05:18:45;22.57;;;14.60;;
3991;SDS011;2010;48.194;16.394;2022-10-29T05:21:13;20.73;;;15.00;;
3991;SDS011;2010;48.194;16.394;2022-10-29T05:23:41;20.50;;;15.17;;
3991;SDS011;2010;48.194;16.394;2022-10-29T05:26:10;17.17;;;13.33;;
3991;SDS011;2010;48.194;16.394;2022-10-29T05:28:40;18.30;;;14.20;;
3991;SDS011;2010;48.194;16.394;2022-10-29T05:31:11;16.90;;;13.70;;
3991;SDS011;2010;48.194;16.394;2022-10-29T05:33:46;18.67;;;14.67;;
3991;SDS011;2010;48.194;16.394;2022-10-29T05:36:19;19.40;;;14.83;;
3991;SDS011;2010;48.194;16.394;2022-10-29T05:38:47;17.53;;;14.10;;
3991;SDS011;2010;48.194;16.394;2022-10-29T05:41:18;20.13;;;14.83;;
3991;SDS011;2010;48.194;16.394;2022-10-29T05:43:47;23.80;;;14.73;;
3991;SDS011;2010;48.194;16.394;2022-10-29T05:46:17;16.70;;;13.57;;
3991;SDS011;2010;48.194;16.394;2022-10-29T05:48:47;19.20;;;13.53;;
3991;SDS011;2010;48.194;16.394;2022-10-29T05:51:16;16.90;;;13.70;;
3991;SDS011;2010;48.194;16.394;2022-10-29T05:53:45;16.20;;;13.13;;
3991;SDS011;2010;48.194;16.394;2022-10-29T05:56:13;21.40;;;14.73;;
3991;SDS011;2010;48.194;16.394;2022-10-29T05:58:42;17.47;;;12.63;;
3991;SDS011;2010;48.194;16.394;2022-10-29T06:01:12;17.43;;;14.30;;
3991;SDS011;2010;48.194;16.394;2022-10-29T06:03:40;19.03;;;13.80;;
3991;SDS011;2010;48.194;16.394;2022-10-29T06:06:13;19.20;;;14.50;;
3991;SDS011;2010;48.194;16.394;2022-10-29T06:08:41;21.77;;;14.90;;
3991;SDS011;2010;48.194;16.394;2022-10-29T06:11:13;17.70;;;14.40;;
3991;SDS011;2010;48.194;16.394;2022-10-29T06:13:41;20.00;;;15.17;;
3991;SDS011;2010;48.194;16.394;2022-10-29T06:16:10;19.70;;;15.13;;
3991;SDS011;2010;48.194;16.394;2022-10-29T06:18:39;21.73;;;15.13;;
3991;SDS011;2010;48.194;16.394;2022-10-29T06:21:07;19.20;;;15.20;;
3991;SDS011;2010;48.194;16.394;2022-10-29T06:23:37;17.37;;;13.57;;
3991;SDS011;2010;48.194;16.394;2022-10-29T06:26:07;19.60;;;14.43;;
3991;SDS011;2010;48.194;16.394;2022-10-29T06:28:35;21.13;;;14.23;;
3991;SDS011;2010;48.194;16.394;2022-10-29T06:31:07;22.77;;;14.70;;
3991;SDS011;2010;48.194;16.394;2022-10-29T06:33:36;21.60;;;15.27;;
3991;SDS011;2010;48.194;16.394;2022-10-29T06:36:08;20.00;;;14.57;;
3991;SDS011;2010;48.194;16.394;2022-10-29T06:38:38;21.70;;;15.50;;
3991;SDS011;2010;48.194;16.394;2022-10-29T06:41:11;24.10;;;16.03;;
3991;SDS011;2010;48.194;16.394;2022-10-29T06:43:41;17.30;;;12.73;;
3991;SDS011;2010;48.194;16.394;2022-10-29T06:46:13;21.47;;;15.50;;
3991;SDS011;2010;48.194;16.394;2022-10-29T06:48:41;17.13;;;13.63;;
3991;SDS011;2010;48.194;16.394;2022-10-29T06:51:13;17.87;;;13.40;;
3991;SDS011;2010;48.194;16.394;2022-10-29T06:53:45;20.13;;;15.77;;
3991;SDS011;2010;48.194;16.394;2022-10-29T06:56:15;20.53;;;13.70;;
3991;SDS011;2010;48.194;16.394;2022-10-29T06:58:43;20.33;;;14.87;;
3991;SDS011;2010;48.194;16.394;2022-10-29T07:01:13;21.87;;;15.20;;
3991;SDS011;2010;48.194;16.394;2022-10-29T07:03:41;22.90;;;15.10;;
3991;SDS011;2010;48.194;16.394;2022-10-29T07:06:11;18.30;;;13.13;;
3991;SDS011;2010;48.194;16.394;2022-10-29T07:08:45;25.40;;;15.33;;
3991;SDS011;2010;48.194;16.394;2022-10-29T07:11:15;20.80;;;14.47;;
3991;SDS011;2010;48.194;16.394;2022-10-29T07:13:44;22.50;;;14.87;;
3991;SDS011;2010;48.194;16.394;2022-10-29T07:16:12;19.37;;;13.77;;
3991;SDS011;2010;48.194;16.394;2022-10-29T07:18:41;19.00;;;13.73;;
3991;SDS011;2010;48.194;16.394;2022-10-29T07:21:11;20.10;;;14.37;;
3991;SDS011;2010;48.194;16.394;2022-10-29T07:23:40;16.73;;;12.60;;
3991;SDS011;2010;48.194;16.394;2022-10-29T07:26:12;19.33;;;13.23;;
3991;SDS011;2010;48.194;16.394;2022-10-29T07:28:40;17.63;;;12.67;;
3991;SDS011;2010;48.194;16.394;2022-10-29T07:31:10;18.20;;;12.30;;
3991;SDS011;2010;48.194;16.394;2022-10-29T07:33:40;17.90;;;13.60;;
3991;SDS011;2010;48.194;16.394;2022-10-29T07:36:08;20.67;;;15.30;;
3991;SDS011;2010;48.194;16.394;2022-10-29T07:38:37;16.80;;;12.20;;
3991;SDS011;2010;48.194;16.394;2022-10-29T07:41:08;18.00;;;11.77;;
3991;SDS011;2010;48.194;16.394;2022-10-29T07:43:40;21.67;;;12.97;;
3991;SDS011;2010;48.194;16.394;2022-10-29T07:46:10;17.80;;;12.53;;
3991;SDS011;2010;48.194;16.394;2022-10-29T07:48:39;17.93;;;11.67;;
3991;SDS011;2010;48.194;16.394;2022-10-29T07:51:11;20.23;;;13.77;;
3991;SDS011;2010;48.194;16.394;2022-10-29T07:53:40;19.67;;;13.20;;
3991;SDS011;2010;48.194;16.394;2022-10-29T07:56:11;15.43;;;12.60;;
3991;SDS011;2010;48.194;16.394;2022-10-29T07:58:40;16.33;;;12.00;;
3991;SDS011;2010;48.194;16.394;2022-10-29T08:01:11;15.07;;;11.57;;
3991;SDS011;2010;48.194;16.394;2022-10-29T08:03:40;19.33;;;12.90;;
3991;SDS011;2010;48.194;16.394;2022-10-29T08:06:09;13.33;;;11.47;;
3991;SDS011;2010;48.194;16.394;2022-10-29T08:08:38;13.17;;;11.17;;
3991;SDS011;2010;48.194;16.394;2022-10-29T08:11:11;14.73;;;11.10;;
3991;SDS011;2010;48.194;16.394;2022-10-29T08:13:41;14.93;;;11.90;;
3991;SDS011;2010;48.194;16.394;2022-10-29T08:16:10;16.87;;;12.63;;
3991;SDS011;2010;48.194;16.394;2022-10-29T08:18:39;14.67;;;11.27;;
3991;SDS011;2010;48.194;16.394;2022-10-29T08:21:10;13.77;;;10.40;;
3991;SDS011;2010;48.194;16.394;2022-10-29T08:23:38;15.00;;;11.10;;
3991;SDS011;2010;48.194;16.394;2022-10-29T08:26:08;11.40;;;9.60;;
3991;SDS011;2010;48.194;16.394;2022-10-29T08:28:37;12.03;;;10.00;;
3991;SDS011;2010;48.194;16.394;2022-10-29T08:31:10;12.37;;;10.23;;
3991;SDS011;2010;48.194;16.394;2022-10-29T08:33:39;9.20;;;8.27;;
3991;SDS011;2010;48.194;16.394;2022-10-29T08:36:09;9.10;;;8.20;;
3991;SDS011;2010;48.194;16.394;2022-10-29T08:38:38;9.20;;;8.30;;
3991;SDS011;2010;48.194;16.394;2022-10-29T08:41:21;10.43;;;9.20;;
3991;SDS011;2010;48.194;16.394;2022-10-29T08:46:53;9.10;;;8.17;;
3991;SDS011;2010;48.194;16.394;2022-10-29T08:49:35;8.80;;;7.90;;
3991;SDS011;2010;48.194;16.394;2022-10-29T08:52:13;9.43;;;8.40;;
3991;SDS011;2010;48.194;16.394;2022-10-29T08:54:47;9.93;;;8.87;;
3991;SDS011;2010;48.194;16.394;2022-10-29T08:57:19;9.90;;;8.50;;
3991;SDS011;2010;48.194;16.394;2022-10-29T09:00:00;10.80;;;8.47;;
3991;SDS011;2010;48.194;16.394;2022-10-29T09:02:32;9.40;;;8.40;;
3991;SDS011;2010;48.194;16.394;2022-10-29T09:05:01;11.03;;;8.23;;
3991;SDS011;2010;48.194;16.394;2022-10-29T09:07:37;10.07;;;9.03;;
3991;SDS011;2010;48.194;16.394;2022-10-29T09:10:16;9.40;;;8.40;;
3991;SDS011;2010;48.194;16.394;2022-10-29T09:15:45;11.87;;;9.30;;
3991;SDS011;2010;48.194;16.394;2022-10-29T09:18:28;9.93;;;8.90;;
3991;SDS011;2010;48.194;16.394;2022-10-29T09:21:10;10.73;;;9.60;;
3991;SDS011;2010;48.194;16.394;2022-10-29T09:23:56;10.77;;;8.90;;
3991;SDS011;2010;48.194;16.394;2022-10-29T09:26:30;9.20;;;8.30;;
3991;SDS011;2010;48.194;16.394;2022-10-29T09:29:04;12.60;;;8.93;;
3991;SDS011;2010;48.194;16.394;2022-10-29T09:31:45;10.07;;;9.13;;
3991;SDS011;2010;48.194;16.394;2022-10-29T09:34:17;11.10;;;9.47;;
3991;SDS011;2010;48.194;16.394;2022-10-29T09:36:52;10.43;;;9.27;;
3991;SDS011;2010;48.194;16.394;2022-10-29T09:39:23;11.60;;;9.53;;
3991;SDS011;2010;48.194;16.394;2022-10-29T09:42:01;10.43;;;9.37;;
3991;SDS011;2010;48.194;16.394;2022-10-29T09:44:34;12.23;;;9.07;;
3991;SDS011;2010;48.194;16.394;2022-10-29T09:47:11;12.53;;;9.90;;
3991;SDS011;2010;48.194;16.394;2022-10-29T09:49:48;11.60;;;9.73;;
3991;SDS011;2010;48.194;16.394;2022-10-29T09:52:34;13.37;;;10.10;;
3991;SDS011;2010;48.194;16.394;2022-10-29T09:55:10;12.07;;;10.07;;
3991;SDS011;2010;48.194;16.394;2022-10-29T09:57:45;16.10;;;11.20;;
3991;SDS011;2010;48.194;16.394;2022-10-29T10:00:17;13.20;;;10.20;;
3991;SDS011;2010;48.194;16.394;2022-10-29T10:02:51;13.83;;;10.37;;
3991;SDS011;2010;48.194;16.394;2022-10-29T10:05:26;12.57;;;10.50;;
3991;SDS011;2010;48.194;16.394;2022-10-29T10:08:03;13.10;;;11.30;;
3991;SDS011;2010;48.194;16.394;2022-10-29T10:10:38;14.67;;;11.57;;
3991;SDS011;2010;48.194;16.394;2022-10-29T10:13:19;15.60;;;11.30;;
3991;SDS011;2010;48.194;16.394;2022-10-29T10:15:52;14.50;;;11.13;;
3991;SDS011;2010;48.194;16.394;2022-10-29T10:18:25;12.60;;;10.47;;
3991;SDS011;2010;48.194;16.394;2022-10-29T10:21:00;11.20;;;9.33;;
3991;SDS011;2010;48.194;16.394;2022-10-29T10:23:42;11.37;;;10.17;;
3991;SDS011;2010;48.194;16.394;2022-10-29T10:26:26;13.80;;;10.67;;
3991;SDS011;2010;48.194;16.394;2022-10-29T10:29:04;12.93;;;10.87;;
3991;SDS011;2010;48.194;16.394;2022-10-29T10:31:39;12.50;;;10.23;;
3991;SDS011;2010;48.194;16.394;2022-10-29T10:34:16;13.03;;;10.50;;
3991;SDS011;2010;48.194;16.394;2022-10-29T10:36:49;14.43;;;10.63;;
3991;SDS011;2010;48.194;16.394;2022-10-29T10:39:24;12.83;;;10.77;;
3991;SDS011;2010;48.194;16.394;2022-10-29T10:41:54;12.77;;;10.03;;
3991;SDS011;2010;48.194;16.394;2022-10-29T10:44:25;11.87;;;9.83;;
3991;SDS011;2010;48.194;16.394;2022-10-29T10:46:56;12.77;;;11.40;;
3991;SDS011;2010;48.194;16.394;2022-10-29T10:49:28;14.83;;;11.83;;
3991;SDS011;2010;48.194;16.394;2022-10-29T10:52:02;12.43;;;10.90;;
3991;SDS011;2010;48.194;16.394;2022-10-29T10:54:33;14.27;;;11.80;;
3991;SDS011;2010;48.194;16.394;2022-10-29T10:57:17;12.70;;;11.30;;
3991;SDS011;2010;48.194;16.394;2022-10-29T10:59:50;13.03;;;11.17;;
3991;SDS011;2010;48.194;16.394;2022-10-29T11:02:30;14.30;;;11.67;;
3991;SDS011;2010;48.194;16.394;2022-10-29T11:05:04;13.47;;;11.27;;
3991;SDS011;2010;48.194;16.394;2022-10-29T11:07:41;14.17;;;11.33;;
3991;SDS011;2010;48.194;16.394;2022-10-29T11:10:13;12.73;;;10.93;;
3991;SDS011;2010;48.194;16.394;2022-10-29T11:12:43;13.23;;;11.27;;
3991;SDS011;2010;48.194;16.394;2022-10-29T11:15:15;16.20;;;11.63;;
3991;SDS011;2010;48.194;16.394;2022-10-29T11:17:49;14.27;;;10.90;;
3991;SDS011;2010;48.194;16.394;2022-10-29T11:20:22;16.60;;;11.27;;
3991;SDS011;2010;48.194;16.394;2022-10-29T11:22:56;19.23;;;14.50;;
3991;SDS011;2010;48.194;16.394;2022-10-29T11:25:30;14.83;;;13.20;;
3991;SDS011;2010;48.194;16.394;2022-10-29T11:28:14;15.40;;;13.80;;
3991;SDS011;2010;48.194;16.394;2022-10-29T11:30:49;17.13;;;14.37;;
3991;SDS011;2010;48.194;16.394;2022-10-29T11:33:21;20.73;;;17.40;;
3991;SDS011;2010;48.194;16.394;2022-10-29T11:35:52;26.97;;;21.33;;
3991;SDS011;2010;48.194;16.394;2022-10-29T11:38:30;30.77;;;24.93;;
3991;SDS011;2010;48.194;16.394;2022-10-29T11:41:03;30.67;;;24.93;;
3991;SDS011;2010;48.194;16.394;2022-10-29T11:43:34;38.67;;;27.70;;
3991;SDS011;2010;48.194;16.394;2022-10-29T11:46:04;31.50;;;25.07;;
3991;SDS011;2010;48.194;16.394;2022-10-29T11:48:41;39.93;;;28.30;;
3991;SDS011;2010;48.194;16.394;2022-10-29T11:51:19;33.53;;;27.90;;
3991;SDS011;2010;48.194;16.394;2022-10-29T11:53:58;39.63;;;28.70;;
3991;SDS011;2010;48.194;16.394;2022-10-29T11:56:35;35.10;;;28.47;;
3991;SDS011;2010;48.194;16.394;2022-10-29T11:59:28;37.23;;;28.33;;
3991;SDS011;2010;48.194;16.394;2022-10-29T12:02:04;39.17;;;29.00;;
3991;SDS011;2010;48.194;16.394;2022-10-29T12:04:39;37.90;;;28.50;;
3991;SDS011;2010;48.194;16.394;2022-10-29T12:07:13;38.23;;;28.63;;
3991;SDS011;2010;48.194;16.394;2022-10-29T12:09:57;40.87;;;30.50;;
3991;SDS011;2010;48.194;16.394;2022-10-29T12:12:31;44.17;;;31.30;;
3991;SDS011;2010;48.194;16.394;2022-10-29T12:15:11;44.27;;;30.10;;
3991;SDS011;2010;48.194;16.394;2022-10-29T12:17:44;39.77;;;30.10;;
3991;SDS011;2010;48.194;16.394;2022-10-29T12:20:16;37.57;;;29.77;;
3991;SDS011;2010;48.194;16.394;2022-10-29T12:22:54;39.23;;;31.20;;
3991;SDS011;2010;48.194;16.394;2022-10-29T12:25:36;41.40;;;31.43;;
3991;SDS011;2010;48.194;16.394;2022-10-29T12:28:14;42.37;;;30.03;;
3991;SDS011;2010;48.194;16.394;2022-10-29T12:30:50;32.17;;;27.60;;
3991;SDS011;2010;48.194;16.394;2022-10-29T12:33:27;33.73;;;26.60;;
3991;SDS011;2010;48.194;16.394;2022-10-29T12:36:06;26.90;;;21.87;;
3991;SDS011;2010;48.194;16.394;2022-10-29T12:38:36;26.73;;;22.87;;
3991;SDS011;2010;48.194;16.394;2022-10-29T12:41:12;26.70;;;21.83;;
3991;SDS011;2010;48.194;16.394;2022-10-29T12:43:44;23.63;;;20.70;;
3991;SDS011;2010;48.194;16.394;2022-10-29T12:46:17;28.07;;;21.33;;
3991;SDS011;2010;48.194;16.394;2022-10-29T12:48:52;23.33;;;20.67;;
3991;SDS011;2010;48.194;16.394;2022-10-29T12:51:27;28.17;;;23.60;;
3991;SDS011;2010;48.194;16.394;2022-10-29T12:54:11;25.60;;;22.03;;
3991;SDS011;2010;48.194;16.394;2022-10-29T12:56:46;25.10;;;20.80;;
3991;SDS011;2010;48.194;16.394;2022-10-29T13:02:23;29.43;;;23.67;;
3991;SDS011;2010;48.194;16.394;2022-10-29T13:10:51;33.70;;;28.27;;
3991;SDS011;2010;48.194;16.394;2022-10-29T13:13:36;36.83;;;29.20;;
3991;SDS011;2010;48.194;16.394;2022-10-29T13:16:26;36.73;;;28.03;;
3991;SDS011;2010;48.194;16.394;2022-10-29T13:19:06;33.27;;;28.90;;
3991;SDS011;2010;48.194;16.394;2022-10-29T13:21:57;34.33;;;26.97;;
3991;SDS011;2010;48.194;16.394;2022-10-29T13:24:28;36.97;;;28.57;;
3991;SDS011;2010;48.194;16.394;2022-10-29T13:32:51;34.50;;;25.53;;
3991;SDS011;2010;48.194;16.394;2022-10-29T13:38:10;34.97;;;25.80;;
3991;SDS011;2010;48.194;16.394;2022-10-29T13:43:34;27.00;;;19.77;;
3991;SDS011;2010;48.194;16.394;2022-10-29T13:46:20;21.97;;;17.83;;
3991;SDS011;2010;48.194;16.394;2022-10-29T13:48:51;18.23;;;15.07;;
3991;SDS011;2010;48.194;16.394;2022-10-29T13:51:24;19.77;;;15.13;;
3991;SDS011;2010;48.194;16.394;2022-10-29T13:53:58;18.83;;;15.20;;
3991;SDS011;2010;48.194;16.394;2022-10-29T13:56:32;17.93;;;13.93;;
3991;SDS011;2010;48.194;16.394;2022-10-29T13:59:03;18.47;;;15.07;;
3991;SDS011;2010;48.194;16.394;2022-10-29T14:01:48;16.80;;;14.23;;
3991;SDS011;2010;48.194;16.394;2022-10-29T14:04:29;16.50;;;13.67;;
3991;SDS011;2010;48.194;16.394;2022-10-29T14:06:59;20.30;;;14.83;;
3991;SDS011;2010;48.194;16.394;2022-10-29T14:09:35;21.20;;;15.07;;
3991;SDS011;2010;48.194;16.394;2022-10-29T14:12:16;17.87;;;14.07;;
3991;SDS011;2010;48.194;16.394;2022-10-29T14:14:49;18.70;;;13.90;;
3991;SDS011;2010;48.194;16.394;2022-10-29T14:17:27;19.10;;;14.30;;
3991;SDS011;2010;48.194;16.394;2022-10-29T14:19:56;15.07;;;13.47;;
3991;SDS011;2010;48.194;16.394;2022-10-29T14:22:27;16.83;;;13.10;;
3991;SDS011;2010;48.194;16.394;2022-10-29T14:24:59;18.90;;;14.33;;
3991;SDS011;2010;48.194;16.394;2022-10-29T14:27:29;19.90;;;13.90;;
3991;SDS011;2010;48.194;16.394;2022-10-29T14:30:10;14.57;;;12.53;;
3991;SDS011;2010;48.194;16.394;2022-10-29T14:32:40;17.57;;;15.67;;
3991;SDS011;2010;48.194;16.394;2022-10-29T14:35:14;20.23;;;15.70;;
3991;SDS011;2010;48.194;16.394;2022-10-29T14:37:44;22.43;;;15.80;;
3991;SDS011;2010;48.194;16.394;2022-10-29T14:40:15;18.73;;;15.27;;
3991;SDS011;2010;48.194;16.394;2022-10-29T14:42:49;18.17;;;14.10;;
3991;SDS011;2010;48.194;16.394;2022-10-29T14:45:23;19.80;;;14.40;;
3991;SDS011;2010;48.194;16.394;2022-10-29T14:47:55;18.47;;;14.73;;
3991;SDS011;2010;48.194;16.394;2022-10-29T14:50:26;22.33;;;14.97;;
3991;SDS011;2010;48.194;16.394;2022-10-29T14:52:56;21.47;;;15.20;;
3991;SDS011;2010;48.194;16.394;2022-10-29T14:55:26;18.40;;;14.50;;
3991;SDS011;2010;48.194;16.394;2022-10-29T14:58:00;19.10;;;13.93;;
3991;SDS011;2010;48.194;16.394;2022-10-29T15:00:31;23.20;;;15.90;;
3991;SDS011;2010;48.194;16.394;2022-10-29T15:03:04;25.30;;;17.33;;
3991;SDS011;2010;48.194;16.394;2022-10-29T15:05:36;33.30;;;18.00;;
3991;SDS011;2010;48.194;16.394;2022-10-29T15:08:14;20.17;;;16.37;;
3991;SDS011;2010;48.194;16.394;2022-10-29T15:10:46;25.37;;;17.63;;
3991;SDS011;2010;48.194;16.394;2022-10-29T15:13:21;22.73;;;17.60;;
3991;SDS011;2010;48.194;16.394;2022-10-29T15:15:52;22.47;;;16.33;;
3991;SDS011;2010;48.194;16.394;2022-10-29T15:18:27;22.83;;;17.20;;
3991;SDS011;2010;48.194;16.394;2022-10-29T15:20:56;22.10;;;16.70;;
3991;SDS011;2010;48.194;16.394;2022-10-29T15:23:26;20.27;;;15.70;;
3991;SDS011;2010;48.194;16.394;2022-10-29T15:25:57;25.57;;;16.73;;
3991;SDS011;2010;48.194;16.394;2022-10-29T15:28:29;20.40;;;16.23;;
3991;SDS011;2010;48.194;16.394;2022-10-29T15:31:00;22.17;;;17.70;;
3991;SDS011;2010;48.194;16.394;2022-10-29T15:33:31;24.60;;;17.90;;
3991;SDS011;2010;48.194;16.394;2022-10-29T15:36:00;22.43;;;16.77;;